Seiling, Oklahoma
Current Conditions -  °F | °C
As of 5:15 AM on Thursday 18 Dec 2014 (Local Time) from KJWG Reporting Station
Haze Haze  
Wind Chill: 34°   Ceiling: 300
Heat Index: 38°   Visibility: 1.5mi
Dew Point: 38°   Wind: 5mph
Humidity: 100%   Direction: 70°ENE
Pressure: 30.09"   Gusts: NA
Location:  36.15°N, 98.92°W
Report Text: KJWG 181115Z AUTO 07004KT 1 1/2SM BR OVC003 03/03 A3009 RMK AO2 T00320032 TSNO
Loading
Personal Weather Stations






























Interactive Weather Map New forecast layout! Learn more

10-Day Weather Forecast

Advertisements
Track Severe Weather on mobile